KAEX

Alexandria/Louisiana

Airport
ICAO code
KAEX
Summary
ICAO Region
NAM
ICAO Territory
Location

Alexandria, Rapides Parish, Louisiana,

Coordinates
31° 19' 38" N , 92° 32' 54" W
KCC
Metar
Observation
KAEX 030053Z 36004KT 10SM CLR 20/11 A3008 RMK AO2 SLP189 T02000111
Station
Alexandria, Alexandria International Airport
Date/Time
2022-10-03 00:53:00
Wind direction
360°
Wind speed
04 kts
Lowest cloud amount
n/a
Temperature
20°C
Dew point
11.1°C
Humidity
56%
Weather condition
n/a

Description

Alexandria International Airport is a public use airport located 4 nm west of the central business district of Alexandria, in Rapides Parish, Louisiana, United States.

Climatology

Humid “subtropical” climate (Köppen climate classification Cfa) - characterized by hot, humid summers and cool winters. Significant amounts of precipitation occur in all seasons in most areas. Winter rainfall (and sometimes snowfall) is associated with large storms that the westerlies steer from west to east. Most summer rainfall occurs during thunderstorms and occasional tropical storms (hurricanes).

Airport map

Aerial View

SKYbrary Partners:

Safety knowledge contributed by: